Terminal Aerodrome Forecast
Issued by NWS Wichita, KS

Home | Current Version | Previous Version | Graphics & Text | Print | Product List | Glossary On
Versions: 1 2 3 4 5 6 7 8 9 10 11 12 13 14 15 16 17 18 19 20 21 22 23 24 25 26 27 28 29 30
000
FTUS43 KICT 180126 AAB
TAFICT
TAF AMD
KICT 180126Z 1801/1824 09006KT 1SM -SN SCT005 BKN015
     FM180300 09008KT 1SM -FZDZSN BKN004 OVC009
     FM181500 03007KT 1/2SM FG BKN009
     FM181800 01007KT 4SM BR OVC015=

USA.gov is the U.S. government's official web portal to all federal, state and local government web resources and services.